sensor_id;sensor_type;location;lat;lon;timestamp;P1;durP1;ratioP1;P2;durP2;ratioP2
53594;SDS011;39479;45.720;11.310;2023-12-20T00:01:54;6.97;;;3.78;;
53594;SDS011;39479;45.720;11.310;2023-12-20T00:04:20;8.27;;;4.38;;
53594;SDS011;39479;45.720;11.310;2023-12-20T00:06:46;5.95;;;4.00;;
53594;SDS011;39479;45.720;11.310;2023-12-20T00:09:12;4.93;;;3.60;;
53594;SDS011;39479;45.720;11.310;2023-12-20T00:11:38;6.60;;;3.20;;
53594;SDS011;39479;45.720;11.310;2023-12-20T00:14:04;4.35;;;3.28;;
53594;SDS011;39479;45.720;11.310;2023-12-20T00:16:30;5.38;;;2.80;;
53594;SDS011;39479;45.720;11.310;2023-12-20T00:18:56;6.53;;;4.35;;
53594;SDS011;39479;45.720;11.310;2023-12-20T00:21:22;6.40;;;3.70;;
53594;SDS011;39479;45.720;11.310;2023-12-20T00:23:49;5.28;;;3.75;;
53594;SDS011;39479;45.720;11.310;2023-12-20T00:26:15;7.03;;;3.83;;
53594;SDS011;39479;45.720;11.310;2023-12-20T00:28:41;4.72;;;3.30;;
53594;SDS011;39479;45.720;11.310;2023-12-20T00:31:07;4.03;;;3.03;;
53594;SDS011;39479;45.720;11.310;2023-12-20T00:33:33;4.78;;;2.72;;
53594;SDS011;39479;45.720;11.310;2023-12-20T00:36:00;6.93;;;3.60;;
53594;SDS011;39479;45.720;11.310;2023-12-20T00:38:26;5.88;;;4.15;;
53594;SDS011;39479;45.720;11.310;2023-12-20T00:40:52;6.45;;;4.63;;
53594;SDS011;39479;45.720;11.310;2023-12-20T00:43:18;7.72;;;4.65;;
53594;SDS011;39479;45.720;11.310;2023-12-20T00:45:44;6.07;;;4.13;;
53594;SDS011;39479;45.720;11.310;2023-12-20T00:48:10;5.20;;;3.50;;
53594;SDS011;39479;45.720;11.310;2023-12-20T00:50:37;6.65;;;3.50;;
53594;SDS011;39479;45.720;11.310;2023-12-20T00:53:03;4.75;;;3.47;;
53594;SDS011;39479;45.720;11.310;2023-12-20T00:55:29;3.35;;;2.92;;
53594;SDS011;39479;45.720;11.310;2023-12-20T00:57:55;3.85;;;3.13;;
53594;SDS011;39479;45.720;11.310;2023-12-20T01:00:21;3.92;;;2.90;;
53594;SDS011;39479;45.720;11.310;2023-12-20T01:02:47;3.17;;;2.50;;
53594;SDS011;39479;45.720;11.310;2023-12-20T01:05:16;4.15;;;3.05;;
53594;SDS011;39479;45.720;11.310;2023-12-20T01:07:42;3.53;;;2.35;;
53594;SDS011;39479;45.720;11.310;2023-12-20T01:10:08;2.75;;;2.42;;
53594;SDS011;39479;45.720;11.310;2023-12-20T01:12:35;2.78;;;2.17;;
53594;SDS011;39479;45.720;11.310;2023-12-20T01:15:02;2.47;;;2.17;;
53594;SDS011;39479;45.720;11.310;2023-12-20T01:17:28;2.88;;;2.40;;
53594;SDS011;39479;45.720;11.310;2023-12-20T01:19:54;2.90;;;2.60;;
53594;SDS011;39479;45.720;11.310;2023-12-20T01:22:20;3.40;;;2.58;;
53594;SDS011;39479;45.720;11.310;2023-12-20T01:24:46;3.78;;;2.60;;
53594;SDS011;39479;45.720;11.310;2023-12-20T01:27:12;3.40;;;2.58;;
53594;SDS011;39479;45.720;11.310;2023-12-20T01:29:38;4.35;;;3.00;;
53594;SDS011;39479;45.720;11.310;2023-12-20T01:32:04;4.05;;;2.90;;
53594;SDS011;39479;45.720;11.310;2023-12-20T01:34:30;4.57;;;2.53;;
53594;SDS011;39479;45.720;11.310;2023-12-20T01:36:56;3.53;;;2.40;;
53594;SDS011;39479;45.720;11.310;2023-12-20T01:39:22;2.78;;;2.42;;
53594;SDS011;39479;45.720;11.310;2023-12-20T01:41:48;3.33;;;2.30;;
53594;SDS011;39479;45.720;11.310;2023-12-20T01:44:14;2.88;;;2.50;;
53594;SDS011;39479;45.720;11.310;2023-12-20T01:46:40;3.83;;;2.58;;
53594;SDS011;39479;45.720;11.310;2023-12-20T01:49:06;2.85;;;2.50;;
53594;SDS011;39479;45.720;11.310;2023-12-20T01:51:33;3.83;;;2.80;;
53594;SDS011;39479;45.720;11.310;2023-12-20T01:53:59;4.32;;;2.50;;
53594;SDS011;39479;45.720;11.310;2023-12-20T01:56:26;3.53;;;2.80;;
53594;SDS011;39479;45.720;11.310;2023-12-20T01:58:53;2.50;;;2.30;;
53594;SDS011;39479;45.720;11.310;2023-12-20T02:01:19;2.75;;;2.35;;
53594;SDS011;39479;45.720;11.310;2023-12-20T02:03:45;2.83;;;2.55;;
53594;SDS011;39479;45.720;11.310;2023-12-20T02:06:11;4.20;;;2.67;;
53594;SDS011;39479;45.720;11.310;2023-12-20T02:08:37;3.80;;;2.88;;
53594;SDS011;39479;45.720;11.310;2023-12-20T02:11:03;2.65;;;2.45;;
53594;SDS011;39479;45.720;11.310;2023-12-20T02:13:30;2.95;;;2.35;;
53594;SDS011;39479;45.720;11.310;2023-12-20T02:15:56;4.22;;;2.67;;
53594;SDS011;39479;45.720;11.310;2023-12-20T02:18:22;3.88;;;2.90;;
53594;SDS011;39479;45.720;11.310;2023-12-20T02:20:48;2.92;;;2.40;;
53594;SDS011;39479;45.720;11.310;2023-12-20T02:23:14;3.22;;;2.67;;
53594;SDS011;39479;45.720;11.310;2023-12-20T02:25:40;4.90;;;3.25;;
53594;SDS011;39479;45.720;11.310;2023-12-20T02:28:06;4.05;;;2.92;;
53594;SDS011;39479;45.720;11.310;2023-12-20T02:30:34;3.85;;;2.50;;
53594;SDS011;39479;45.720;11.310;2023-12-20T02:33:00;4.25;;;2.83;;
53594;SDS011;39479;45.720;11.310;2023-12-20T02:35:27;3.47;;;2.58;;
53594;SDS011;39479;45.720;11.310;2023-12-20T02:37:53;3.05;;;2.47;;
53594;SDS011;39479;45.720;11.310;2023-12-20T02:40:19;5.35;;;3.10;;
53594;SDS011;39479;45.720;11.310;2023-12-20T02:42:45;4.20;;;2.80;;
53594;SDS011;39479;45.720;11.310;2023-12-20T02:45:11;4.13;;;2.92;;
53594;SDS011;39479;45.720;11.310;2023-12-20T02:47:37;3.35;;;2.60;;
53594;SDS011;39479;45.720;11.310;2023-12-20T02:50:03;3.75;;;2.80;;
53594;SDS011;39479;45.720;11.310;2023-12-20T02:52:29;3.05;;;2.63;;
53594;SDS011;39479;45.720;11.310;2023-12-20T02:54:55;5.00;;;3.33;;
53594;SDS011;39479;45.720;11.310;2023-12-20T02:57:21;5.00;;;2.85;;
53594;SDS011;39479;45.720;11.310;2023-12-20T02:59:47;2.40;;;2.20;;
53594;SDS011;39479;45.720;11.310;2023-12-20T03:02:13;2.95;;;2.55;;
53594;SDS011;39479;45.720;11.310;2023-12-20T03:04:40;3.45;;;2.30;;
53594;SDS011;39479;45.720;11.310;2023-12-20T03:07:06;4.03;;;2.08;;
53594;SDS011;39479;45.720;11.310;2023-12-20T03:09:32;2.35;;;2.20;;
53594;SDS011;39479;45.720;11.310;2023-12-20T03:11:58;2.30;;;2.10;;
53594;SDS011;39479;45.720;11.310;2023-12-20T03:14:24;3.22;;;2.20;;
53594;SDS011;39479;45.720;11.310;2023-12-20T03:16:50;2.55;;;2.22;;
53594;SDS011;39479;45.720;11.310;2023-12-20T03:19:16;2.05;;;1.95;;
53594;SDS011;39479;45.720;11.310;2023-12-20T03:21:42;3.05;;;2.20;;
53594;SDS011;39479;45.720;11.310;2023-12-20T03:24:08;2.40;;;2.20;;
53594;SDS011;39479;45.720;11.310;2023-12-20T03:26:34;3.28;;;2.47;;
53594;SDS011;39479;45.720;11.310;2023-12-20T03:29:00;3.35;;;2.30;;
53594;SDS011;39479;45.720;11.310;2023-12-20T03:31:26;3.03;;;2.30;;
53594;SDS011;39479;45.720;11.310;2023-12-20T03:33:53;2.20;;;2.10;;
53594;SDS011;39479;45.720;11.310;2023-12-20T03:36:19;3.50;;;2.40;;
53594;SDS011;39479;45.720;11.310;2023-12-20T03:38:45;3.03;;;2.22;;
53594;SDS011;39479;45.720;11.310;2023-12-20T03:41:11;5.50;;;2.60;;
53594;SDS011;39479;45.720;11.310;2023-12-20T03:43:37;4.85;;;2.90;;
53594;SDS011;39479;45.720;11.310;2023-12-20T03:46:03;3.00;;;2.40;;
53594;SDS011;39479;45.720;11.310;2023-12-20T03:48:30;4.18;;;2.55;;
53594;SDS011;39479;45.720;11.310;2023-12-20T03:50:56;5.20;;;2.92;;
53594;SDS011;39479;45.720;11.310;2023-12-20T03:53:22;4.38;;;2.60;;
53594;SDS011;39479;45.720;11.310;2023-12-20T03:55:48;3.88;;;2.67;;
53594;SDS011;39479;45.720;11.310;2023-12-20T03:58:14;5.07;;;2.80;;
53594;SDS011;39479;45.720;11.310;2023-12-20T04:00:40;5.40;;;2.72;;
53594;SDS011;39479;45.720;11.310;2023-12-20T04:03:06;5.07;;;2.97;;
53594;SDS011;39479;45.720;11.310;2023-12-20T04:05:33;3.63;;;2.70;;
53594;SDS011;39479;45.720;11.310;2023-12-20T04:07:59;3.42;;;2.47;;
53594;SDS011;39479;45.720;11.310;2023-12-20T04:10:25;3.55;;;2.33;;
53594;SDS011;39479;45.720;11.310;2023-12-20T04:12:51;4.43;;;2.50;;
53594;SDS011;39479;45.720;11.310;2023-12-20T04:15:17;3.83;;;3.10;;
53594;SDS011;39479;45.720;11.310;2023-12-20T04:17:43;5.30;;;2.90;;
53594;SDS011;39479;45.720;11.310;2023-12-20T04:20:10;4.68;;;2.92;;
53594;SDS011;39479;45.720;11.310;2023-12-20T04:22:36;4.93;;;2.83;;
53594;SDS011;39479;45.720;11.310;2023-12-20T04:25:02;2.65;;;2.45;;
53594;SDS011;39479;45.720;11.310;2023-12-20T04:27:28;3.60;;;2.40;;
53594;SDS011;39479;45.720;11.310;2023-12-20T04:29:54;2.92;;;2.22;;
53594;SDS011;39479;45.720;11.310;2023-12-20T04:32:20;2.72;;;2.38;;
53594;SDS011;39479;45.720;11.310;2023-12-20T04:34:46;3.08;;;2.35;;
53594;SDS011;39479;45.720;11.310;2023-12-20T04:37:12;3.60;;;2.53;;
53594;SDS011;39479;45.720;11.310;2023-12-20T04:39:38;2.40;;;2.20;;
53594;SDS011;39479;45.720;11.310;2023-12-20T04:42:06;2.45;;;2.20;;
53594;SDS011;39479;45.720;11.310;2023-12-20T04:44:32;3.25;;;2.70;;
53594;SDS011;39479;45.720;11.310;2023-12-20T04:46:58;3.08;;;2.53;;
53594;SDS011;39479;45.720;11.310;2023-12-20T04:49:25;4.22;;;3.10;;
53594;SDS011;39479;45.720;11.310;2023-12-20T04:51:51;3.63;;;2.60;;
53594;SDS011;39479;45.720;11.310;2023-12-20T04:54:17;3.63;;;2.60;;
53594;SDS011;39479;45.720;11.310;2023-12-20T04:56:43;3.83;;;2.63;;
53594;SDS011;39479;45.720;11.310;2023-12-20T04:59:09;3.25;;;2.45;;
53594;SDS011;39479;45.720;11.310;2023-12-20T05:01:35;2.35;;;2.13;;
53594;SDS011;39479;45.720;11.310;2023-12-20T05:04:01;2.10;;;1.90;;
53594;SDS011;39479;45.720;11.310;2023-12-20T05:06:27;2.78;;;2.42;;
53594;SDS011;39479;45.720;11.310;2023-12-20T05:08:53;3.15;;;2.70;;
53594;SDS011;39479;45.720;11.310;2023-12-20T05:11:19;3.38;;;2.42;;
53594;SDS011;39479;45.720;11.310;2023-12-20T05:13:45;3.30;;;2.42;;
53594;SDS011;39479;45.720;11.310;2023-12-20T05:16:11;3.90;;;3.00;;
53594;SDS011;39479;45.720;11.310;2023-12-20T05:18:39;4.30;;;2.75;;
53594;SDS011;39479;45.720;11.310;2023-12-20T05:21:05;4.07;;;2.75;;
53594;SDS011;39479;45.720;11.310;2023-12-20T05:23:31;3.85;;;2.78;;
53594;SDS011;39479;45.720;11.310;2023-12-20T05:25:57;5.47;;;2.83;;
53594;SDS011;39479;45.720;11.310;2023-12-20T05:28:24;4.78;;;3.00;;
53594;SDS011;39479;45.720;11.310;2023-12-20T05:30:50;2.67;;;2.47;;
53594;SDS011;39479;45.720;11.310;2023-12-20T05:33:16;2.63;;;2.35;;
53594;SDS011;39479;45.720;11.310;2023-12-20T05:35:42;4.07;;;3.08;;
53594;SDS011;39479;45.720;11.310;2023-12-20T05:38:08;4.90;;;3.53;;
53594;SDS011;39479;45.720;11.310;2023-12-20T05:40:34;4.28;;;3.17;;
53594;SDS011;39479;45.720;11.310;2023-12-20T05:43:00;4.72;;;2.80;;
53594;SDS011;39479;45.720;11.310;2023-12-20T05:45:27;3.22;;;2.58;;
53594;SDS011;39479;45.720;11.310;2023-12-20T05:47:53;3.63;;;2.97;;
53594;SDS011;39479;45.720;11.310;2023-12-20T05:50:19;4.55;;;2.80;;
53594;SDS011;39479;45.720;11.310;2023-12-20T05:52:46;2.67;;;2.35;;
53594;SDS011;39479;45.720;11.310;2023-12-20T05:55:12;4.60;;;2.58;;
53594;SDS011;39479;45.720;11.310;2023-12-20T05:57:38;4.45;;;3.22;;
53594;SDS011;39479;45.720;11.310;2023-12-20T06:00:04;3.53;;;2.78;;
53594;SDS011;39479;45.720;11.310;2023-12-20T06:02:31;3.75;;;2.90;;
53594;SDS011;39479;45.720;11.310;2023-12-20T06:04:57;3.25;;;2.28;;
53594;SDS011;39479;45.720;11.310;2023-12-20T06:07:23;2.75;;;2.15;;
53594;SDS011;39479;45.720;11.310;2023-12-20T06:09:49;5.97;;;3.95;;
53594;SDS011;39479;45.720;11.310;2023-12-20T06:12:16;8.25;;;4.90;;
53594;SDS011;39479;45.720;11.310;2023-12-20T06:14:42;3.95;;;3.42;;
53594;SDS011;39479;45.720;11.310;2023-12-20T06:17:08;3.92;;;3.15;;
53594;SDS011;39479;45.720;11.310;2023-12-20T06:19:34;5.57;;;3.78;;
53594;SDS011;39479;45.720;11.310;2023-12-20T06:22:00;6.50;;;5.18;;
53594;SDS011;39479;45.720;11.310;2023-12-20T06:24:26;10.82;;;7.18;;
53594;SDS011;39479;45.720;11.310;2023-12-20T06:26:53;10.57;;;8.05;;
53594;SDS011;39479;45.720;11.310;2023-12-20T06:29:20;8.90;;;6.57;;
53594;SDS011;39479;45.720;11.310;2023-12-20T06:31:46;6.88;;;5.05;;
53594;SDS011;39479;45.720;11.310;2023-12-20T06:34:12;6.22;;;4.05;;
53594;SDS011;39479;45.720;11.310;2023-12-20T06:36:38;4.30;;;3.70;;
53594;SDS011;39479;45.720;11.310;2023-12-20T06:39:04;4.97;;;3.17;;
53594;SDS011;39479;45.720;11.310;2023-12-20T06:41:30;5.82;;;3.45;;
53594;SDS011;39479;45.720;11.310;2023-12-20T06:43:56;4.57;;;3.58;;
53594;SDS011;39479;45.720;11.310;2023-12-20T06:46:23;3.42;;;2.80;;
53594;SDS011;39479;45.720;11.310;2023-12-20T06:48:49;6.57;;;3.03;;
53594;SDS011;39479;45.720;11.310;2023-12-20T06:51:15;5.60;;;3.42;;
53594;SDS011;39479;45.720;11.310;2023-12-20T06:53:42;8.38;;;4.82;;
53594;SDS011;39479;45.720;11.310;2023-12-20T06:56:09;6.72;;;4.28;;
53594;SDS011;39479;45.720;11.310;2023-12-20T06:58:36;3.97;;;3.40;;
53594;SDS011;39479;45.720;11.310;2023-12-20T07:01:03;7.50;;;5.10;;
53594;SDS011;39479;45.720;11.310;2023-12-20T07:03:30;5.03;;;3.70;;
53594;SDS011;39479;45.720;11.310;2023-12-20T07:05:56;7.75;;;5.60;;
53594;SDS011;39479;45.720;11.310;2023-12-20T07:08:22;5.25;;;3.60;;
53594;SDS011;39479;45.720;11.310;2023-12-20T07:10:48;3.85;;;3.15;;
53594;SDS011;39479;45.720;11.310;2023-12-20T07:13:14;6.93;;;4.60;;
53594;SDS011;39479;45.720;11.310;2023-12-20T07:15:40;8.65;;;5.93;;
53594;SDS011;39479;45.720;11.310;2023-12-20T07:18:06;8.65;;;6.22;;
53594;SDS011;39479;45.720;11.310;2023-12-20T07:20:32;8.70;;;6.65;;
53594;SDS011;39479;45.720;11.310;2023-12-20T07:22:58;8.82;;;6.90;;
53594;SDS011;39479;45.720;11.310;2023-12-20T07:25:24;9.02;;;6.97;;
53594;SDS011;39479;45.720;11.310;2023-12-20T07:27:50;7.50;;;6.30;;
53594;SDS011;39479;45.720;11.310;2023-12-20T07:30:16;7.25;;;5.65;;
53594;SDS011;39479;45.720;11.310;2023-12-20T07:32:42;6.95;;;5.22;;
53594;SDS011;39479;45.720;11.310;2023-12-20T07:35:08;6.95;;;4.60;;
53594;SDS011;39479;45.720;11.310;2023-12-20T07:37:34;6.75;;;5.20;;
53594;SDS011;39479;45.720;11.310;2023-12-20T07:40:00;7.75;;;4.97;;
53594;SDS011;39479;45.720;11.310;2023-12-20T07:42:26;4.75;;;3.92;;
53594;SDS011;39479;45.720;11.310;2023-12-20T07:44:52;7.70;;;5.50;;
53594;SDS011;39479;45.720;11.310;2023-12-20T07:47:18;6.05;;;4.90;;
53594;SDS011;39479;45.720;11.310;2023-12-20T07:49:47;8.18;;;4.38;;
53594;SDS011;39479;45.720;11.310;2023-12-20T07:52:13;6.18;;;4.72;;
53594;SDS011;39479;45.720;11.310;2023-12-20T07:54:39;4.97;;;3.75;;
53594;SDS011;39479;45.720;11.310;2023-12-20T07:57:05;5.18;;;3.65;;
53594;SDS011;39479;45.720;11.310;2023-12-20T07:59:31;5.93;;;4.20;;
53594;SDS011;39479;45.720;11.310;2023-12-20T08:01:57;12.00;;;8.07;;
53594;SDS011;39479;45.720;11.310;2023-12-20T08:04:23;12.20;;;8.40;;
53594;SDS011;39479;45.720;11.310;2023-12-20T08:06:50;14.43;;;8.82;;
53594;SDS011;39479;45.720;11.310;2023-12-20T08:09:16;8.57;;;6.40;;
53594;SDS011;39479;45.720;11.310;2023-12-20T08:11:45;9.70;;;5.53;;
53594;SDS011;39479;45.720;11.310;2023-12-20T08:14:12;9.93;;;5.43;;
53594;SDS011;39479;45.720;11.310;2023-12-20T08:16:38;13.80;;;8.82;;
53594;SDS011;39479;45.720;11.310;2023-12-20T08:19:04;9.45;;;6.90;;
53594;SDS011;39479;45.720;11.310;2023-12-20T08:21:30;8.30;;;5.88;;
53594;SDS011;39479;45.720;11.310;2023-12-20T08:23:56;8.70;;;5.72;;
53594;SDS011;39479;45.720;11.310;2023-12-20T08:26:22;7.45;;;5.22;;
53594;SDS011;39479;45.720;11.310;2023-12-20T08:28:49;18.23;;;11.20;;
53594;SDS011;39479;45.720;11.310;2023-12-20T08:31:16;16.65;;;11.50;;
53594;SDS011;39479;45.720;11.310;2023-12-20T08:33:45;13.63;;;9.63;;
53594;SDS011;39479;45.720;11.310;2023-12-20T08:36:12;13.70;;;9.13;;
53594;SDS011;39479;45.720;11.310;2023-12-20T08:38:38;11.10;;;8.40;;
53594;SDS011;39479;45.720;11.310;2023-12-20T08:41:04;8.82;;;6.38;;
53594;SDS011;39479;45.720;11.310;2023-12-20T08:43:31;7.97;;;6.22;;
53594;SDS011;39479;45.720;11.310;2023-12-20T08:45:57;13.52;;;9.48;;
53594;SDS011;39479;45.720;11.310;2023-12-20T08:48:23;15.52;;;9.63;;
53594;SDS011;39479;45.720;11.310;2023-12-20T08:50:49;14.18;;;9.82;;
53594;SDS011;39479;45.720;11.310;2023-12-20T08:53:17;13.82;;;10.63;;
53594;SDS011;39479;45.720;11.310;2023-12-20T08:55:43;14.18;;;11.38;;
53594;SDS011;39479;45.720;11.310;2023-12-20T08:58:09;20.30;;;14.88;;
53594;SDS011;39479;45.720;11.310;2023-12-20T09:00:35;20.42;;;16.02;;
53594;SDS011;39479;45.720;11.310;2023-12-20T09:03:01;23.23;;;17.00;;
53594;SDS011;39479;45.720;11.310;2023-12-20T09:05:27;20.35;;;16.10;;
53594;SDS011;39479;45.720;11.310;2023-12-20T09:07:54;18.98;;;13.23;;
53594;SDS011;39479;45.720;11.310;2023-12-20T09:10:20;14.40;;;10.43;;
53594;SDS011;39479;45.720;11.310;2023-12-20T09:12:48;15.68;;;12.23;;
53594;SDS011;39479;45.720;11.310;2023-12-20T09:15:14;16.45;;;11.40;;
53594;SDS011;39479;45.720;11.310;2023-12-20T09:17:40;12.10;;;7.80;;
53594;SDS011;39479;45.720;11.310;2023-12-20T09:20:06;16.33;;;10.80;;
53594;SDS011;39479;45.720;11.310;2023-12-20T09:22:33;13.77;;;10.07;;
53594;SDS011;39479;45.720;11.310;2023-12-20T09:24:59;15.82;;;12.40;;
53594;SDS011;39479;45.720;11.310;2023-12-20T09:27:27;17.85;;;13.48;;
53594;SDS011;39479;45.720;11.310;2023-12-20T09:29:53;20.13;;;13.88;;
53594;SDS011;39479;45.720;11.310;2023-12-20T09:32:19;87.85;;;48.05;;
53594;SDS011;39479;45.720;11.310;2023-12-20T09:34:48;67.35;;;44.00;;
53594;SDS011;39479;45.720;11.310;2023-12-20T09:37:14;38.03;;;26.88;;
53594;SDS011;39479;45.720;11.310;2023-12-20T09:39:40;35.83;;;24.67;;
53594;SDS011;39479;45.720;11.310;2023-12-20T09:42:06;23.25;;;17.17;;
53594;SDS011;39479;45.720;11.310;2023-12-20T09:44:33;21.00;;;14.68;;
53594;SDS011;39479;45.720;11.310;2023-12-20T09:47:01;19.58;;;14.40;;
53594;SDS011;39479;45.720;11.310;2023-12-20T09:49:28;17.90;;;13.10;;
53594;SDS011;39479;45.720;11.310;2023-12-20T09:51:54;20.85;;;16.33;;
53594;SDS011;39479;45.720;11.310;2023-12-20T09:54:21;22.38;;;16.98;;
53594;SDS011;39479;45.720;11.310;2023-12-20T09:56:48;23.10;;;17.60;;
53594;SDS011;39479;45.720;11.310;2023-12-20T09:59:14;24.65;;;18.58;;
53594;SDS011;39479;45.720;11.310;2023-12-20T10:01:40;25.20;;;17.70;;
53594;SDS011;39479;45.720;11.310;2023-12-20T10:04:07;18.33;;;14.57;;
53594;SDS011;39479;45.720;11.310;2023-12-20T10:06:40;22.38;;;17.83;;
53594;SDS011;39479;45.720;11.310;2023-12-20T10:09:07;21.58;;;17.38;;
53594;SDS011;39479;45.720;11.310;2023-12-20T10:11:34;13.90;;;11.20;;
53594;SDS011;39479;45.720;11.310;2023-12-20T10:14:02;14.20;;;10.50;;
53594;SDS011;39479;45.720;11.310;2023-12-20T10:16:28;13.35;;;10.70;;
53594;SDS011;39479;45.720;11.310;2023-12-20T10:18:54;14.00;;;10.55;;
53594;SDS011;39479;45.720;11.310;2023-12-20T10:21:21;17.35;;;11.52;;
53594;SDS011;39479;45.720;11.310;2023-12-20T10:23:51;24.08;;;17.60;;
53594;SDS011;39479;45.720;11.310;2023-12-20T10:26:23;24.10;;;18.98;;
53594;SDS011;39479;45.720;11.310;2023-12-20T10:28:50;25.02;;;19.27;;
53594;SDS011;39479;45.720;11.310;2023-12-20T10:31:27;25.83;;;19.45;;
53594;SDS011;39479;45.720;11.310;2023-12-20T10:33:55;21.85;;;16.75;;
53594;SDS011;39479;45.720;11.310;2023-12-20T10:36:22;15.90;;;11.90;;
53594;SDS011;39479;45.720;11.310;2023-12-20T10:38:49;14.98;;;10.43;;
53594;SDS011;39479;45.720;11.310;2023-12-20T10:41:17;15.52;;;10.48;;
53594;SDS011;39479;45.720;11.310;2023-12-20T10:43:45;10.85;;;8.23;;
53594;SDS011;39479;45.720;11.310;2023-12-20T10:46:11;11.20;;;8.35;;
53594;SDS011;39479;45.720;11.310;2023-12-20T10:48:37;14.60;;;10.75;;
53594;SDS011;39479;45.720;11.310;2023-12-20T10:51:05;21.05;;;14.13;;
53594;SDS011;39479;45.720;11.310;2023-12-20T10:53:31;18.35;;;14.02;;
53594;SDS011;39479;45.720;11.310;2023-12-20T10:55:58;18.13;;;13.55;;
53594;SDS011;39479;45.720;11.310;2023-12-20T10:58:26;20.95;;;14.45;;
53594;SDS011;39479;45.720;11.310;2023-12-20T11:00:54;19.75;;;13.40;;
53594;SDS011;39479;45.720;11.310;2023-12-20T11:03:23;16.67;;;12.45;;
53594;SDS011;39479;45.720;11.310;2023-12-20T11:05:53;20.77;;;13.68;;
53594;SDS011;39479;45.720;11.310;2023-12-20T11:08:44;15.40;;;11.95;;
53594;SDS011;39479;45.720;11.310;2023-12-20T11:11:14;16.90;;;12.07;;
53594;SDS011;39479;45.720;11.310;2023-12-20T11:13:43;16.77;;;12.05;;
53594;SDS011;39479;45.720;11.310;2023-12-20T11:16:10;15.85;;;12.13;;
53594;SDS011;39479;45.720;11.310;2023-12-20T11:18:36;18.75;;;13.07;;
53594;SDS011;39479;45.720;11.310;2023-12-20T11:21:04;16.75;;;12.60;;
53594;SDS011;39479;45.720;11.310;2023-12-20T11:23:31;16.42;;;11.18;;
53594;SDS011;39479;45.720;11.310;2023-12-20T11:25:59;14.15;;;9.80;;
53594;SDS011;39479;45.720;11.310;2023-12-20T11:28:25;12.73;;;8.75;;
53594;SDS011;39479;45.720;11.310;2023-12-20T11:30:55;11.70;;;9.02;;
53594;SDS011;39479;45.720;11.310;2023-12-20T11:33:25;43.45;;;25.77;;
53594;SDS011;39479;45.720;11.310;2023-12-20T11:35:51;15.65;;;9.88;;
53594;SDS011;39479;45.720;11.310;2023-12-20T11:38:19;17.25;;;9.18;;
53594;SDS011;39479;45.720;11.310;2023-12-20T11:40:47;13.75;;;8.10;;
53594;SDS011;39479;45.720;11.310;2023-12-20T11:43:29;11.63;;;8.15;;
53594;SDS011;39479;45.720;11.310;2023-12-20T11:45:55;11.15;;;7.78;;
53594;SDS011;39479;45.720;11.310;2023-12-20T11:48:27;12.40;;;8.93;;
53594;SDS011;39479;45.720;11.310;2023-12-20T11:50:54;13.90;;;9.75;;
53594;SDS011;39479;45.720;11.310;2023-12-20T11:53:20;16.73;;;11.35;;
53594;SDS011;39479;45.720;11.310;2023-12-20T11:55:47;18.98;;;13.27;;
53594;SDS011;39479;45.720;11.310;2023-12-20T11:58:13;20.42;;;13.88;;
53594;SDS011;39479;45.720;11.310;2023-12-20T12:00:41;23.05;;;13.50;;
53594;SDS011;39479;45.720;11.310;2023-12-20T12:03:08;24.13;;;14.00;;
53594;SDS011;39479;45.720;11.310;2023-12-20T12:05:34;19.35;;;12.82;;
53594;SDS011;39479;45.720;11.310;2023-12-20T12:08:01;18.83;;;11.52;;
53594;SDS011;39479;45.720;11.310;2023-12-20T12:10:28;15.73;;;10.20;;
53594;SDS011;39479;45.720;11.310;2023-12-20T12:12:54;16.15;;;10.82;;
53594;SDS011;39479;45.720;11.310;2023-12-20T12:15:21;16.48;;;11.80;;
53594;SDS011;39479;45.720;11.310;2023-12-20T12:17:53;17.05;;;13.30;;
53594;SDS011;39479;45.720;11.310;2023-12-20T12:20:21;19.95;;;14.35;;
53594;SDS011;39479;45.720;11.310;2023-12-20T12:22:57;20.98;;;15.30;;
53594;SDS011;39479;45.720;11.310;2023-12-20T12:25:23;25.40;;;18.73;;
53594;SDS011;39479;45.720;11.310;2023-12-20T12:27:50;22.35;;;15.55;;
53594;SDS011;39479;45.720;11.310;2023-12-20T12:30:17;16.55;;;11.15;;
53594;SDS011;39479;45.720;11.310;2023-12-20T12:32:46;15.23;;;11.18;;
53594;SDS011;39479;45.720;11.310;2023-12-20T12:35:13;14.23;;;10.13;;
53594;SDS011;39479;45.720;11.310;2023-12-20T12:37:39;14.43;;;10.43;;
53594;SDS011;39479;45.720;11.310;2023-12-20T12:40:12;14.55;;;10.45;;
53594;SDS011;39479;45.720;11.310;2023-12-20T12:42:39;14.15;;;9.88;;
53594;SDS011;39479;45.720;11.310;2023-12-20T12:45:05;12.95;;;9.20;;
53594;SDS011;39479;45.720;11.310;2023-12-20T12:47:32;12.63;;;9.18;;
53594;SDS011;39479;45.720;11.310;2023-12-20T12:49:58;15.45;;;9.20;;
53594;SDS011;39479;45.720;11.310;2023-12-20T12:52:24;12.98;;;9.25;;
53594;SDS011;39479;45.720;11.310;2023-12-20T12:54:51;13.23;;;8.50;;
53594;SDS011;39479;45.720;11.310;2023-12-20T12:57:17;16.23;;;9.68;;
53594;SDS011;39479;45.720;11.310;2023-12-20T12:59:44;13.15;;;9.57;;
53594;SDS011;39479;45.720;11.310;2023-12-20T13:02:13;13.10;;;9.40;;
53594;SDS011;39479;45.720;11.310;2023-12-20T13:04:40;15.70;;;10.52;;
53594;SDS011;39479;45.720;11.310;2023-12-20T13:07:06;24.13;;;15.18;;
53594;SDS011;39479;45.720;11.310;2023-12-20T13:09:33;23.50;;;15.65;;
53594;SDS011;39479;45.720;11.310;2023-12-20T13:11:59;19.30;;;13.30;;
53594;SDS011;39479;45.720;11.310;2023-12-20T13:14:28;17.25;;;12.45;;
53594;SDS011;39479;45.720;11.310;2023-12-20T13:16:54;17.35;;;9.82;;
53594;SDS011;39479;45.720;11.310;2023-12-20T13:19:21;14.75;;;9.93;;
53594;SDS011;39479;45.720;11.310;2023-12-20T13:21:47;11.93;;;8.93;;
53594;SDS011;39479;45.720;11.310;2023-12-20T13:24:13;11.00;;;8.07;;
53594;SDS011;39479;45.720;11.310;2023-12-20T13:26:39;8.88;;;6.25;;
53594;SDS011;39479;45.720;11.310;2023-12-20T13:29:06;9.70;;;6.65;;
53594;SDS011;39479;45.720;11.310;2023-12-20T13:31:32;7.88;;;6.10;;
53594;SDS011;39479;45.720;11.310;2023-12-20T13:33:58;10.32;;;7.90;;
53594;SDS011;39479;45.720;11.310;2023-12-20T13:36:25;10.93;;;7.63;;
53594;SDS011;39479;45.720;11.310;2023-12-20T13:38:51;19.33;;;12.80;;
53594;SDS011;39479;45.720;11.310;2023-12-20T13:41:18;18.75;;;12.98;;
53594;SDS011;39479;45.720;11.310;2023-12-20T13:43:44;23.67;;;15.73;;
53594;SDS011;39479;45.720;11.310;2023-12-20T13:46:10;21.05;;;14.35;;
53594;SDS011;39479;45.720;11.310;2023-12-20T13:48:36;21.58;;;14.85;;
53594;SDS011;39479;45.720;11.310;2023-12-20T13:51:03;22.27;;;15.80;;
53594;SDS011;39479;45.720;11.310;2023-12-20T13:53:29;21.80;;;16.48;;
53594;SDS011;39479;45.720;11.310;2023-12-20T13:55:55;22.60;;;14.30;;
53594;SDS011;39479;45.720;11.310;2023-12-20T13:58:21;20.08;;;14.27;;
53594;SDS011;39479;45.720;11.310;2023-12-20T14:00:47;19.02;;;13.70;;
53594;SDS011;39479;45.720;11.310;2023-12-20T14:03:13;21.40;;;15.18;;
53594;SDS011;39479;45.720;11.310;2023-12-20T14:05:39;18.42;;;13.65;;
53594;SDS011;39479;45.720;11.310;2023-12-20T14:08:06;20.98;;;15.40;;
53594;SDS011;39479;45.720;11.310;2023-12-20T14:10:32;22.13;;;14.82;;
53594;SDS011;39479;45.720;11.310;2023-12-20T14:12:58;26.25;;;17.20;;
53594;SDS011;39479;45.720;11.310;2023-12-20T14:15:24;25.88;;;18.83;;
53594;SDS011;39479;45.720;11.310;2023-12-20T14:17:50;23.35;;;18.33;;
53594;SDS011;39479;45.720;11.310;2023-12-20T14:20:18;25.25;;;18.48;;
53594;SDS011;39479;45.720;11.310;2023-12-20T14:22:44;25.00;;;18.73;;